createdAt,value
2023-03-04T00:01:21.587Z,101786.94
2023-03-04T00:03:48.244Z,101784.31
2023-03-04T00:06:14.902Z,101791.53
2023-03-04T00:08:41.587Z,101790.78
2023-03-04T00:11:08.317Z,101788.19
2023-03-04T00:13:35.039Z,101804.38
2023-03-04T00:16:01.808Z,101810.47
2023-03-04T00:18:28.587Z,101801.59
2023-03-04T00:20:55.423Z,101795.22
2023-03-04T00:23:23.284Z,101795.13
2023-03-04T00:25:50.173Z,101791.53
2023-03-04T00:28:16.919Z,101804.97
2023-03-04T00:30:43.634Z,101798.66
2023-03-04T00:33:10.295Z,101804.03
2023-03-04T00:35:36.975Z,101798.63
2023-03-04T00:38:03.636Z,101804.88
2023-03-04T00:40:30.313Z,101796.09
2023-03-04T00:42:56.944Z,101793.41
2023-03-04T00:45:23.630Z,101799.81
2023-03-04T00:47:50.294Z,101805.00
2023-03-04T00:50:17.372Z,101810.41
2023-03-04T00:52:44.064Z,101802.06
2023-03-04T00:55:10.821Z,101797.69
2023-03-04T00:57:37.464Z,101800.28
2023-03-04T01:00:05.070Z,101801.94
2023-03-04T01:02:31.765Z,101806.59
2023-03-04T01:04:58.480Z,101810.13
2023-03-04T01:07:25.176Z,101820.00
2023-03-04T01:09:51.911Z,101814.50
2023-03-04T01:12:18.878Z,101817.28
2023-03-04T01:14:45.581Z,101809.41
2023-03-04T01:17:12.325Z,101803.94
2023-03-04T01:19:39.094Z,101804.84
2023-03-04T01:22:05.739Z,101800.19
2023-03-04T01:24:32.815Z,101810.13
2023-03-04T01:26:59.476Z,101811.09
2023-03-04T01:29:26.420Z,101796.63
2023-03-04T01:31:53.895Z,101798.50
2023-03-04T01:34:20.713Z,101783.03
2023-03-04T01:36:47.462Z,101778.63
2023-03-04T01:39:14.132Z,101772.25
2023-03-04T01:41:41.060Z,101762.44
2023-03-04T01:44:10.907Z,101773.00
2023-03-04T01:46:38.206Z,101757.94
2023-03-04T01:49:07.035Z,101767.22
2023-03-04T01:51:33.728Z,101762.44
2023-03-04T01:54:00.382Z,101766.03
2023-03-04T01:56:36.030Z,101748.91
2023-03-04T01:59:24.199Z,101748.66
2023-03-04T02:01:54.359Z,101751.31
2023-03-04T02:04:24.075Z,101746.88
2023-03-04T02:06:52.028Z,101746.91
2023-03-04T02:09:19.676Z,101743.16
2023-03-04T02:11:47.495Z,101747.69
2023-03-04T02:14:15.875Z,101739.13
2023-03-04T02:16:42.878Z,101735.88
2023-03-04T02:19:48.175Z,101728.84
2023-03-04T02:22:15.178Z,101729.06
2023-03-04T02:24:47.611Z,101736.25
2023-03-04T02:27:14.546Z,101726.97
2023-03-04T02:29:41.159Z,101727.78
2023-03-04T02:32:11.230Z,101735.75
2023-03-04T02:34:40.351Z,101746.75
2023-03-04T02:37:07.305Z,101748.66
2023-03-04T02:39:39.875Z,101742.41
2023-03-04T02:42:07.442Z,101745.03
2023-03-04T02:44:37.062Z,101738.91
2023-03-04T02:47:07.077Z,101738.91
2023-03-04T02:49:35.820Z,101740.75
2023-03-04T02:52:08.235Z,101748.94
2023-03-04T02:54:35.177Z,101745.28
2023-03-04T02:57:05.496Z,101747.03
2023-03-04T02:59:32.340Z,101765.09
2023-03-04T03:01:59.056Z,101776.94
2023-03-04T03:04:26.608Z,101768.78
2023-03-04T03:06:53.345Z,101778.84
2023-03-04T03:09:20.708Z,101761.69
2023-03-04T03:11:47.421Z,101774.41
2023-03-04T03:14:14.537Z,101771.47
2023-03-04T03:16:41.452Z,101778.81
2023-03-04T03:19:08.137Z,101768.72
2023-03-04T03:21:34.843Z,101776.75
2023-03-04T03:24:01.573Z,101778.56
2023-03-04T03:26:28.204Z,101781.31
2023-03-04T03:28:54.861Z,101793.00
2023-03-04T03:31:21.595Z,101788.81
2023-03-04T03:33:48.277Z,101793.03
2023-03-04T03:36:14.953Z,101796.69
2023-03-04T03:38:41.658Z,101804.03
2023-03-04T03:41:08.361Z,101791.59
2023-03-04T03:43:35.066Z,101801.69
2023-03-04T03:46:01.815Z,101794.56
2023-03-04T03:48:28.544Z,101783.84
2023-03-04T03:50:55.161Z,101800.97
2023-03-04T03:53:21.841Z,101794.66
2023-03-04T03:55:48.520Z,101784.81
2023-03-04T03:58:15.224Z,101794.75
2023-03-04T04:00:42.023Z,101797.69
2023-03-04T04:03:14.655Z,101810.34
2023-03-04T04:05:41.338Z,101799.72
2023-03-04T04:08:07.961Z,101797.09
2023-03-04T04:10:34.627Z,101793.63
2023-03-04T04:13:01.311Z,101796.44
2023-03-04T04:15:28.021Z,101780.31
2023-03-04T04:17:54.677Z,101797.41
2023-03-04T04:20:21.400Z,101802.91
2023-03-04T04:22:48.108Z,101803.91
2023-03-04T04:25:14.815Z,101812.03
2023-03-04T04:27:41.499Z,101812.94
2023-03-04T04:30:08.719Z,101814.81
2023-03-04T04:32:35.441Z,101826.59
2023-03-04T04:35:02.219Z,101822.19
2023-03-04T04:37:29.043Z,101829.41
2023-03-04T04:39:55.660Z,101819.72
2023-03-04T04:42:22.567Z,101827.09
2023-03-04T04:44:49.660Z,101812.78
2023-03-04T04:47:16.409Z,101821.81
2023-03-04T04:49:43.347Z,101818.25
2023-03-04T04:52:10.073Z,101822.81
2023-03-04T04:54:36.728Z,101815.81
2023-03-04T04:57:06.194Z,101822.13
2023-03-04T04:59:32.862Z,101832.00
2023-03-04T05:01:59.694Z,101831.13
2023-03-04T05:04:26.523Z,101832.06
2023-03-04T05:06:53.185Z,101817.72
2023-03-04T05:09:20.923Z,101825.84
2023-03-04T05:11:47.662Z,101831.13
2023-03-04T05:14:14.350Z,101828.56
2023-03-04T05:16:40.976Z,101831.13
2023-03-04T05:19:07.674Z,101841.22
2023-03-04T05:21:34.395Z,101844.81
2023-03-04T05:24:01.048Z,101827.72
2023-03-04T05:26:27.792Z,101829.50
2023-03-04T05:28:54.501Z,101827.66
2023-03-04T05:31:21.318Z,101823.09
2023-03-04T05:33:48.101Z,101834.97
2023-03-04T05:36:14.815Z,101839.47
2023-03-04T05:38:41.476Z,101844.09
2023-03-04T05:41:08.340Z,101850.53
2023-03-04T05:43:36.082Z,101840.50
2023-03-04T05:46:04.258Z,101843.28
2023-03-04T05:48:31.187Z,101857.56
2023-03-04T05:51:00.318Z,101844.31
2023-03-04T05:53:28.461Z,101850.63
2023-03-04T05:55:55.293Z,101846.22
2023-03-04T05:58:22.263Z,101854.34
2023-03-04T06:00:49.023Z,101851.59
2023-03-04T06:03:20.113Z,101848.88
2023-03-04T06:05:47.185Z,101850.88
2023-03-04T06:08:14.602Z,101845.28
2023-03-04T06:10:41.858Z,101859.66
2023-03-04T06:13:09.100Z,101865.16
2023-03-04T06:15:35.974Z,101858.91
2023-03-04T06:18:02.654Z,101865.31
2023-03-04T06:20:29.389Z,101859.94
2023-03-04T06:22:56.143Z,101873.28
2023-03-04T06:25:23.577Z,101871.63
2023-03-04T06:27:50.977Z,101878.91
2023-03-04T06:30:18.661Z,101881.56
2023-03-04T06:32:46.206Z,101874.44
2023-03-04T06:35:14.132Z,101876.19
2023-03-04T06:37:40.908Z,101854.56
2023-03-04T06:40:08.863Z,101857.38
2023-03-04T06:42:36.013Z,101837.69
2023-03-04T06:45:03.904Z,101846.63
2023-03-04T06:47:30.677Z,101846.69
2023-03-04T06:49:57.414Z,101829.75
2023-03-04T06:52:24.458Z,101837.88
2023-03-04T06:54:51.327Z,101840.56
2023-03-04T06:57:18.305Z,101836.13
2023-03-04T06:59:45.007Z,101843.34
2023-03-04T07:02:12.795Z,101844.09
2023-03-04T07:04:41.247Z,101849.47
2023-03-04T07:07:08.090Z,101829.75
2023-03-04T07:09:35.042Z,101836.03
2023-03-04T07:12:01.748Z,101835.84
2023-03-04T07:14:28.435Z,101835.94
2023-03-04T07:16:55.782Z,101841.44
2023-03-04T07:19:22.670Z,101845.03
2023-03-04T07:21:49.696Z,101852.16
2023-03-04T07:24:16.621Z,101847.63
2023-03-04T07:26:43.328Z,101850.41
2023-03-04T07:29:10.200Z,101860.91
2023-03-04T07:31:37.128Z,101867.28
2023-03-04T07:34:10.139Z,101870.84
2023-03-04T07:36:37.202Z,101864.63
2023-03-04T07:39:05.391Z,101875.25
2023-03-04T07:41:36.237Z,101873.63
2023-03-04T07:44:04.373Z,101867.19
2023-03-04T07:46:31.059Z,101855.38
2023-03-04T07:48:57.963Z,101850.94
2023-03-04T07:51:27.103Z,101867.81
2023-03-04T07:53:57.245Z,101871.03
2023-03-04T07:56:26.868Z,101866.25
2023-03-04T07:58:53.736Z,101873.50
2023-03-04T08:01:26.874Z,101887.69
2023-03-04T08:03:53.913Z,101897.44
2023-03-04T08:06:21.996Z,101889.41
2023-03-04T08:08:50.237Z,101889.97
2023-03-04T08:11:21.060Z,101892.72
2023-03-04T08:13:48.820Z,101888.75
2023-03-04T08:16:18.916Z,101881.25
2023-03-04T08:18:48.457Z,101882.88
2023-03-04T08:21:19.322Z,101893.97
2023-03-04T08:23:47.169Z,101892.19
2023-03-04T08:26:31.500Z,101885.03
2023-03-04T08:28:58.362Z,101887.72
2023-03-04T08:31:25.330Z,101890.28
2023-03-04T08:33:52.982Z,101887.38
2023-03-04T08:36:20.190Z,101897.13
2023-03-04T08:38:47.081Z,101901.78
2023-03-04T08:41:14.208Z,101895.34
2023-03-04T08:43:41.773Z,101886.34
2023-03-04T08:46:08.480Z,101869.56
2023-03-04T08:48:35.325Z,101869.63
2023-03-04T08:51:06.782Z,101876.50
2023-03-04T08:53:33.493Z,101877.72
2023-03-04T08:56:00.160Z,101864.03
2023-03-04T08:58:26.911Z,101861.16
2023-03-04T09:00:53.575Z,101865.50
2023-03-04T09:03:20.559Z,101861.63
2023-03-04T09:05:49.091Z,101850.03
2023-03-04T09:08:16.475Z,101844.44
2023-03-04T09:10:43.688Z,101825.88
2023-03-04T09:13:11.617Z,101840.09
2023-03-04T09:15:43.754Z,101860.66
2023-03-04T09:18:10.430Z,101860.41
2023-03-04T09:20:37.600Z,101860.56
2023-03-04T09:23:04.305Z,101857.47
2023-03-04T09:25:31.072Z,101857.59
2023-03-04T09:27:57.786Z,101865.72
2023-03-04T09:30:24.533Z,101882.22
2023-03-04T09:32:51.273Z,101877.88
2023-03-04T09:35:18.106Z,101869.66
2023-03-04T09:37:46.667Z,101875.19
2023-03-04T09:40:20.098Z,101869.03
2023-03-04T09:42:50.023Z,101869.22
2023-03-04T09:45:20.688Z,101872.97
2023-03-04T09:47:50.992Z,101881.25
2023-03-04T09:50:19.797Z,101866.13
2023-03-04T09:52:58.725Z,101874.47
2023-03-04T09:55:39.359Z,101880.34
2023-03-04T09:58:37.268Z,101883.19
2023-03-04T10:01:14.971Z,101883.09
2023-03-04T10:04:03.381Z,101884.78
2023-03-04T10:06:31.939Z,101896.06
2023-03-04T10:09:04.352Z,101899.78
2023-03-04T10:12:01.600Z,101884.75
2023-03-04T10:14:34.175Z,101881.38
2023-03-04T10:17:09.785Z,101875.53
2023-03-04T10:19:44.176Z,101872.56
2023-03-04T10:22:26.749Z,101867.25
2023-03-04T10:24:58.178Z,101852.94
2023-03-04T10:27:26.560Z,101853.50
2023-03-04T10:29:53.307Z,101871.06
2023-03-04T10:32:21.202Z,101867.06
2023-03-04T10:34:48.014Z,101873.16
2023-03-04T10:37:14.994Z,101883.66
2023-03-04T10:39:44.846Z,101871.94
2023-03-04T10:42:14.574Z,101869.06
2023-03-04T10:44:59.147Z,101863.50
2023-03-04T10:47:28.681Z,101864.50
2023-03-04T10:49:57.955Z,101883.75
2023-03-04T10:52:36.301Z,101878.13
2023-03-04T10:55:06.746Z,101875.66
2023-03-04T10:57:40.277Z,101870.13
2023-03-04T11:00:29.976Z,101886.53
2023-03-04T11:03:18.414Z,101894.88
2023-03-04T11:05:45.134Z,101890.66
2023-03-04T11:08:23.911Z,101908.28
2023-03-04T11:10:52.245Z,101911.91
2023-03-04T11:13:26.505Z,101909.41
2023-03-04T11:15:53.112Z,101922.38
2023-03-04T11:18:26.568Z,101931.59
2023-03-04T11:20:55.416Z,101930.25
2023-03-04T11:23:45.166Z,101922.00
2023-03-04T11:26:18.883Z,101906.28
2023-03-04T11:28:56.582Z,101904.75
2023-03-04T11:31:36.508Z,101893.69
2023-03-04T11:34:28.081Z,101896.72
2023-03-04T11:37:20.248Z,101894.19
2023-03-04T11:39:51.404Z,101904.09
2023-03-04T11:42:21.025Z,101889.22
2023-03-04T11:44:47.800Z,101886.66
2023-03-04T11:47:40.939Z,101895.31
2023-03-04T11:50:16.402Z,101887.28
2023-03-04T11:53:01.794Z,101886.44
2023-03-04T11:55:56.986Z,101887.31
2023-03-04T11:58:45.540Z,101913.66
2023-03-04T12:01:27.947Z,101905.38
2023-03-04T12:03:57.916Z,101867.03
2023-03-04T12:06:43.015Z,101878.56
2023-03-04T12:09:36.505Z,101874.72
2023-03-04T12:12:41.615Z,101875.75
2023-03-04T12:15:22.337Z,101910.84
2023-03-04T12:18:01.112Z,101881.50
2023-03-04T12:20:27.733Z,101863.50
2023-03-04T12:23:02.430Z,101858.13
2023-03-04T12:25:35.620Z,101843.16
2023-03-04T12:28:52.199Z,101840.53
2023-03-04T12:31:53.990Z,101844.66
2023-03-04T12:34:42.661Z,101823.44
2023-03-04T12:37:35.474Z,101833.88
2023-03-04T12:40:47.691Z,101815.94
2023-03-04T12:43:47.787Z,101792.84
2023-03-04T12:46:19.863Z,101786.56
2023-03-04T12:49:24.496Z,101772.09
2023-03-04T12:52:15.026Z,101754.41
2023-03-04T12:54:46.660Z,101772.53
2023-03-04T12:57:21.187Z,101775.25
2023-03-04T13:00:19.118Z,101784.00
2023-03-04T13:03:11.637Z,101806.03
2023-03-04T13:05:57.121Z,101825.38
2023-03-04T13:08:27.125Z,101839.16
2023-03-04T13:10:53.825Z,101827.78
2023-03-04T13:14:23.166Z,101828.88
2023-03-04T13:17:01.651Z,101811.66
2023-03-04T13:19:47.081Z,101794.47
2023-03-04T13:22:38.046Z,101786.09
2023-03-04T13:25:29.877Z,101776.63
2023-03-04T13:28:05.416Z,101764.06
2023-03-04T13:30:32.135Z,101768.13
2023-03-04T13:33:21.340Z,101767.75
2023-03-04T13:36:02.217Z,101779.69
2023-03-04T13:38:32.331Z,101799.97
2023-03-04T13:41:15.711Z,101799.28
2023-03-04T13:43:52.910Z,101804.50
2023-03-04T13:46:19.616Z,101807.47
2023-03-04T13:48:52.417Z,101800.84
2023-03-04T13:51:30.350Z,101809.41
2023-03-04T13:54:00.497Z,101807.22
2023-03-04T13:56:31.583Z,101806.41
2023-03-04T13:59:31.737Z,101815.31
2023-03-04T14:02:01.297Z,101814.81
2023-03-04T14:04:56.556Z,101811.03
2023-03-04T14:07:26.134Z,101828.00
2023-03-04T14:10:05.034Z,101842.16
2023-03-04T14:12:34.984Z,101825.84
2023-03-04T14:15:24.003Z,101825.06
2023-03-04T14:17:55.002Z,101800.94
2023-03-04T14:20:29.484Z,101815.41
2023-03-04T14:23:01.545Z,101799.44
2023-03-04T14:25:31.088Z,101786.19
2023-03-04T14:28:13.750Z,101794.59
2023-03-04T14:30:43.967Z,101794.50
2023-03-04T14:33:31.134Z,101798.88
2023-03-04T14:36:01.590Z,101807.03
2023-03-04T14:38:31.878Z,101795.78
2023-03-04T14:41:10.858Z,101804.38
2023-03-04T14:43:53.847Z,101783.50
2023-03-04T14:46:22.238Z,101762.06
2023-03-04T14:48:54.391Z,101787.94
2023-03-04T14:51:33.323Z,101794.56
2023-03-04T14:54:00.126Z,101777.13
2023-03-04T14:56:29.905Z,101763.44
2023-03-04T14:58:58.489Z,101781.53
2023-03-04T15:01:36.411Z,101783.06
2023-03-04T15:04:12.239Z,101791.47
2023-03-04T15:06:48.481Z,101807.31
2023-03-04T15:09:26.375Z,101801.03
2023-03-04T15:12:06.595Z,101819.41
2023-03-04T15:14:47.893Z,101808.88
2023-03-04T15:17:42.580Z,101810.88
2023-03-04T15:20:09.310Z,101814.84
2023-03-04T15:22:45.229Z,101801.13
2023-03-04T15:25:16.028Z,101815.13
2023-03-04T15:27:44.839Z,101810.78
2023-03-04T15:30:21.404Z,101832.44
2023-03-04T15:32:48.168Z,101828.53
2023-03-04T15:35:17.133Z,101825.69
2023-03-04T15:37:45.118Z,101811.75
2023-03-04T15:40:18.859Z,101804.91
2023-03-04T15:42:45.569Z,101812.25
2023-03-04T15:45:23.402Z,101806.16
2023-03-04T15:47:50.434Z,101803.13
2023-03-04T15:50:22.264Z,101804.16
2023-03-04T15:52:51.079Z,101794.56
2023-03-04T15:55:22.523Z,101773.16
2023-03-04T15:57:54.864Z,101763.75
2023-03-04T16:00:21.811Z,101766.63
2023-03-04T16:02:48.965Z,101748.16
2023-03-04T16:05:16.375Z,101748.75
2023-03-04T16:07:48.558Z,101752.38
2023-03-04T16:10:29.732Z,101739.50
2023-03-04T16:12:57.201Z,101738.38
2023-03-04T16:15:29.553Z,101736.53
2023-03-04T16:17:57.529Z,101736.63
2023-03-04T16:20:28.893Z,101745.81
2023-03-04T16:23:00.024Z,101731.59
2023-03-04T16:25:28.669Z,101750.47
2023-03-04T16:28:04.016Z,101739.72
2023-03-04T16:30:31.469Z,101739.25
2023-03-04T16:32:58.173Z,101737.84
2023-03-04T16:35:29.167Z,101755.50
2023-03-04T16:37:56.929Z,101776.91
2023-03-04T16:40:28.691Z,101771.19
2023-03-04T16:42:55.564Z,101810.97
2023-03-04T16:45:25.444Z,101830.66
2023-03-04T16:47:53.199Z,101828.16
2023-03-04T16:50:26.939Z,101842.44
2023-03-04T16:52:55.328Z,101839.75
2023-03-04T16:55:25.592Z,101855.28
2023-03-04T16:57:53.911Z,101857.19
2023-03-04T17:00:22.983Z,101856.44
2023-03-04T17:03:01.105Z,101867.00
2023-03-04T17:05:32.219Z,101866.19
2023-03-04T17:07:58.913Z,101870.13
2023-03-04T17:10:26.131Z,101864.69
2023-03-04T17:12:52.764Z,101854.06
2023-03-04T17:15:19.682Z,101858.28
2023-03-04T17:17:47.088Z,101869.97
2023-03-04T17:20:16.777Z,101847.34
2023-03-04T17:22:43.487Z,101852.84
2023-03-04T17:25:10.930Z,101852.16
2023-03-04T17:27:37.700Z,101863.88
2023-03-04T17:30:06.861Z,101865.78
2023-03-04T17:32:33.782Z,101864.03
2023-03-04T17:35:01.000Z,101869.34
2023-03-04T17:37:27.682Z,101875.72
2023-03-04T17:39:54.404Z,101877.69
2023-03-04T17:42:21.170Z,101870.63
2023-03-04T17:44:47.983Z,101870.66
2023-03-04T17:47:15.972Z,101869.91
2023-03-04T17:49:43.004Z,101863.59
2023-03-04T17:52:11.261Z,101865.53
2023-03-04T17:54:38.094Z,101861.19
2023-03-04T17:57:05.390Z,101866.78
2023-03-04T17:59:32.427Z,101875.94
2023-03-04T18:01:59.083Z,101872.31
2023-03-04T18:04:25.810Z,101879.56
2023-03-04T18:06:52.542Z,101879.91
2023-03-04T18:09:19.245Z,101886.31
2023-03-04T18:11:46.032Z,101881.09
2023-03-04T18:14:12.904Z,101882.03
2023-03-04T18:16:40.497Z,101879.69
2023-03-04T18:19:09.436Z,101878.09
2023-03-04T18:21:36.177Z,101888.03
2023-03-04T18:24:03.401Z,101874.81
2023-03-04T18:26:30.869Z,101871.47
2023-03-04T18:28:57.935Z,101871.63
2023-03-04T18:31:31.022Z,101861.00
2023-03-04T18:34:00.448Z,101862.00
2023-03-04T18:36:27.264Z,101873.66
2023-03-04T18:38:55.223Z,101870.19
2023-03-04T18:41:21.892Z,101869.63
2023-03-04T18:43:48.753Z,101862.50
2023-03-04T18:46:27.642Z,101869.91
2023-03-04T18:49:00.118Z,101863.84
2023-03-04T18:51:27.036Z,101862.19
2023-03-04T18:53:53.667Z,101866.66
2023-03-04T18:56:28.102Z,101861.53
2023-03-04T18:58:54.972Z,101869.63
2023-03-04T19:01:25.098Z,101867.13
2023-03-04T19:03:54.360Z,101859.13
2023-03-04T19:06:21.924Z,101858.28
2023-03-04T19:08:53.364Z,101871.06
2023-03-04T19:11:20.140Z,101869.41
2023-03-04T19:13:47.596Z,101869.25
2023-03-04T19:16:15.605Z,101864.19
2023-03-04T19:18:42.474Z,101873.06
2023-03-04T19:21:09.494Z,101874.06
2023-03-04T19:23:36.156Z,101879.81
2023-03-04T19:26:05.380Z,101874.59
2023-03-04T19:28:32.286Z,101878.22
2023-03-04T19:30:59.412Z,101883.72
2023-03-04T19:33:28.916Z,101886.53
2023-03-04T19:35:55.695Z,101884.84
2023-03-04T19:38:22.498Z,101879.63
2023-03-04T19:40:49.428Z,101877.09
2023-03-04T19:43:16.261Z,101881.63
2023-03-04T19:45:43.304Z,101882.59
2023-03-04T19:48:10.039Z,101881.88
2023-03-04T19:50:36.988Z,101879.91
2023-03-04T19:53:03.941Z,101873.63
2023-03-04T19:55:30.984Z,101871.72
2023-03-04T19:57:58.179Z,101860.16
2023-03-04T20:00:26.420Z,101853.25
2023-03-04T20:02:55.742Z,101855.84
2023-03-04T20:05:22.594Z,101851.50
2023-03-04T20:07:49.522Z,101853.41
2023-03-04T20:10:16.539Z,101856.84
2023-03-04T20:12:43.489Z,101851.06
2023-03-04T20:15:10.711Z,101860.94
2023-03-04T20:17:37.508Z,101862.75
2023-03-04T20:20:04.788Z,101856.47
2023-03-04T20:22:31.638Z,101871.66
2023-03-04T20:24:58.886Z,101869.03
2023-03-04T20:27:25.748Z,101870.78
2023-03-04T20:29:53.370Z,101861.50
2023-03-04T20:32:20.125Z,101873.94
2023-03-04T20:34:48.534Z,101867.41
2023-03-04T20:37:15.260Z,101860.34
2023-03-04T20:39:42.151Z,101854.00
2023-03-04T20:42:09.402Z,101845.00
2023-03-04T20:44:36.263Z,101851.28
2023-03-04T20:47:03.285Z,101839.63
2023-03-04T20:49:30.287Z,101849.28
2023-03-04T20:52:03.031Z,101841.13
2023-03-04T20:54:30.527Z,101843.56
2023-03-04T20:56:57.236Z,101836.22
2023-03-04T20:59:24.704Z,101830.00
2023-03-04T21:01:52.182Z,101826.34
2023-03-04T21:04:20.666Z,101820.97
2023-03-04T21:06:48.389Z,101818.28
2023-03-04T21:09:17.990Z,101820.03
2023-03-04T21:11:45.351Z,101818.38
2023-03-04T21:14:27.191Z,101827.25
2023-03-04T21:16:57.168Z,101828.09
2023-03-04T21:19:36.887Z,101827.19
2023-03-04T21:22:04.656Z,101828.78
2023-03-04T21:24:34.404Z,101830.75
2023-03-04T21:27:02.148Z,101839.34
2023-03-04T21:29:29.152Z,101831.50
2023-03-04T21:32:23.177Z,101825.94
2023-03-04T21:34:52.613Z,101819.66
2023-03-04T21:37:23.927Z,101819.72
2023-03-04T21:39:51.157Z,101816.41
2023-03-04T21:42:18.289Z,101814.44
2023-03-04T21:44:49.591Z,101814.28
2023-03-04T21:47:17.859Z,101818.81
2023-03-04T21:49:44.693Z,101809.91
2023-03-04T21:52:11.499Z,101815.91
2023-03-04T21:54:38.139Z,101812.28
2023-03-04T21:57:04.854Z,101813.03
2023-03-04T21:59:31.817Z,101803.28
2023-03-04T22:01:58.600Z,101812.28
2023-03-04T22:04:25.340Z,101811.19
2023-03-04T22:06:53.360Z,101806.91
2023-03-04T22:09:20.294Z,101808.28
2023-03-04T22:11:47.207Z,101810.13
2023-03-04T22:14:13.906Z,101797.59
2023-03-04T22:16:56.716Z,101801.91
2023-03-04T22:19:24.718Z,101793.09
2023-03-04T22:21:52.689Z,101801.97
2023-03-04T22:24:20.231Z,101798.38
2023-03-04T22:26:47.000Z,101796.78
2023-03-04T22:29:13.687Z,101798.56
2023-03-04T22:31:40.599Z,101794.41
2023-03-04T22:34:13.264Z,101802.00
2023-03-04T22:36:42.965Z,101795.75
2023-03-04T22:39:12.459Z,101797.03
2023-03-04T22:41:39.214Z,101790.81
2023-03-04T22:44:06.954Z,101789.75
2023-03-04T22:46:35.900Z,101787.34
2023-03-04T22:49:04.994Z,101793.59
2023-03-04T22:51:32.506Z,101786.34
2023-03-04T22:53:59.199Z,101790.81
2023-03-04T22:56:25.867Z,101784.59
2023-03-04T22:58:52.595Z,101782.00
2023-03-04T23:01:20.274Z,101771.44
2023-03-04T23:03:49.379Z,101765.97
2023-03-04T23:06:17.934Z,101769.69
2023-03-04T23:08:46.853Z,101771.84
2023-03-04T23:11:26.428Z,101767.56
2023-03-04T23:13:54.152Z,101763.88
2023-03-04T23:16:21.766Z,101754.06
2023-03-04T23:18:49.182Z,101760.28
2023-03-04T23:21:22.351Z,101758.28
2023-03-04T23:23:50.023Z,101762.47
2023-03-04T23:26:20.055Z,101756.19
2023-03-04T23:28:47.259Z,101759.19
2023-03-04T23:31:16.941Z,101752.06
2023-03-04T23:33:45.588Z,101757.25
2023-03-04T23:36:15.590Z,101748.38
2023-03-04T23:38:47.815Z,101748.22
2023-03-04T23:41:19.916Z,101726.75
2023-03-04T23:43:47.858Z,101724.16
2023-03-04T23:46:14.888Z,101727.50
2023-03-04T23:48:45.534Z,101732.03
2023-03-04T23:51:14.536Z,101725.84
2023-03-04T23:53:41.788Z,101722.25
2023-03-04T23:56:22.339Z,101711.03
2023-03-04T23:58:49.676Z,101714.69
